createdAt,value
2022-10-09T00:02:19.152Z,19.55
2022-10-09T00:07:21.661Z,25.90
2022-10-09T00:12:24.117Z,24.25
2022-10-09T00:17:26.570Z,23.73
2022-10-09T00:22:29.152Z,15.23
2022-10-09T00:27:31.623Z,21.00
2022-10-09T00:32:34.130Z,22.40
2022-10-09T00:37:36.561Z,20.55
2022-10-09T00:42:39.022Z,16.10
2022-10-09T00:47:43.924Z,14.50
2022-10-09T00:52:47.735Z,17.60
2022-10-09T00:57:52.047Z,16.27
2022-10-09T01:02:55.182Z,11.88
2022-10-09T01:08:17.887Z,12.13
2022-10-09T01:13:37.812Z,14.97
2022-10-09T01:18:57.394Z,13.02
2022-10-09T01:24:05.612Z,11.57
2022-10-09T01:29:09.897Z,8.43
2022-10-09T01:34:15.050Z,17.75
2022-10-09T01:39:21.693Z,18.37
2022-10-09T01:44:27.077Z,16.30
2022-10-09T01:49:53.943Z,15.87
2022-10-09T01:55:39.280Z,13.77
2022-10-09T02:00:47.546Z,9.43
2022-10-09T02:05:51.285Z,12.07
2022-10-09T02:10:56.418Z,15.40
2022-10-09T02:16:06.821Z,18.53
2022-10-09T02:21:18.851Z,15.52
2022-10-09T02:26:21.974Z,19.85
2022-10-09T02:31:30.362Z,16.27
2022-10-09T02:36:33.424Z,16.77
2022-10-09T02:41:36.196Z,18.07
2022-10-09T02:46:38.779Z,15.05
2022-10-09T02:51:41.283Z,22.92
2022-10-09T02:56:43.764Z,21.37
2022-10-09T03:01:46.312Z,17.75
2022-10-09T03:06:48.822Z,16.37
2022-10-09T03:11:51.329Z,15.20
2022-10-09T03:16:53.798Z,14.93
2022-10-09T03:21:56.241Z,14.03
2022-10-09T03:26:58.683Z,15.40
2022-10-09T03:32:01.262Z,15.67
2022-10-09T03:37:04.196Z,12.68
2022-10-09T03:42:06.695Z,16.80
2022-10-09T03:47:09.240Z,9.83
2022-10-09T03:52:11.802Z,10.30
2022-10-09T03:57:14.326Z,11.00
2022-10-09T04:02:16.802Z,11.73
2022-10-09T04:07:19.359Z,9.82
2022-10-09T04:12:21.836Z,10.20
2022-10-09T04:17:24.265Z,15.60
2022-10-09T04:22:26.747Z,15.30
2022-10-09T04:27:29.283Z,10.23
2022-10-09T04:32:31.895Z,13.60
2022-10-09T04:37:35.624Z,11.90
2022-10-09T04:42:38.392Z,10.88
2022-10-09T04:47:40.899Z,10.57
2022-10-09T04:52:43.399Z,15.23
2022-10-09T04:57:45.875Z,11.13
2022-10-09T05:02:48.606Z,1.80
2022-10-09T05:07:51.707Z,15.65
2022-10-09T05:12:54.266Z,15.83
2022-10-09T05:17:56.803Z,18.15
2022-10-09T05:22:59.232Z,17.08
2022-10-09T05:28:02.622Z,12.27
2022-10-09T05:33:05.357Z,15.77
2022-10-09T05:38:07.827Z,11.80
2022-10-09T05:43:10.248Z,14.05
2022-10-09T05:48:12.728Z,17.38
2022-10-09T05:53:15.278Z,16.47
2022-10-09T05:58:17.704Z,13.88
2022-10-09T06:03:20.120Z,15.90
2022-10-09T06:08:22.561Z,15.38
2022-10-09T06:13:25.041Z,17.30
2022-10-09T06:18:28.869Z,22.80
2022-10-09T06:23:34.299Z,32.25
2022-10-09T06:28:37.878Z,20.87
2022-10-09T06:33:41.860Z,18.48
2022-10-09T06:38:44.863Z,13.57
2022-10-09T09:10:44.414Z,14.48
2022-10-09T09:16:03.566Z,16.90
2022-10-09T09:21:32.447Z,17.03
2022-10-09T09:26:34.889Z,17.33
2022-10-09T09:31:38.771Z,19.33
2022-10-09T09:36:56.816Z,14.93
2022-10-09T09:42:20.284Z,17.58
2022-10-09T09:47:38.957Z,13.03
2022-10-09T09:52:44.657Z,14.60
2022-10-09T09:57:47.327Z,17.20
2022-10-09T10:02:51.229Z,14.13
2022-10-09T10:07:57.645Z,18.47
2022-10-09T10:13:01.553Z,15.52
2022-10-09T10:18:05.029Z,17.27
2022-10-09T10:23:34.712Z,15.53
2022-10-09T10:28:47.629Z,16.00
2022-10-09T10:33:54.267Z,18.03
2022-10-09T10:39:12.978Z,14.30
2022-10-09T10:44:35.630Z,13.55
2022-10-09T10:49:38.282Z,12.60
2022-10-09T10:55:04.968Z,15.67
2022-10-09T11:00:12.099Z,14.25
2022-10-09T11:05:29.585Z,12.85
2022-10-09T11:11:02.568Z,13.93
2022-10-09T11:16:33.871Z,15.98
2022-10-09T11:22:03.609Z,12.05
2022-10-09T11:27:37.930Z,14.10
2022-10-09T11:33:05.753Z,12.73
2022-10-09T11:38:26.217Z,15.05
2022-10-09T11:43:29.223Z,13.93
2022-10-09T11:48:44.293Z,14.27
2022-10-09T11:53:47.309Z,13.27
2022-10-09T11:59:09.868Z,14.48
2022-10-09T12:04:23.854Z,14.03
2022-10-09T12:09:40.033Z,13.82
2022-10-09T12:14:44.314Z,14.38
2022-10-09T12:19:47.372Z,11.30
2022-10-09T12:24:56.420Z,12.97
2022-10-09T12:30:04.573Z,13.57
2022-10-09T12:35:32.943Z,11.30
2022-10-09T12:40:35.474Z,14.47
2022-10-09T12:45:44.102Z,13.48
2022-10-09T12:50:47.058Z,13.10
2022-10-09T12:55:56.034Z,10.73
2022-10-09T13:01:01.041Z,10.80
2022-10-09T13:06:08.834Z,11.35
2022-10-09T13:11:31.545Z,12.23
2022-10-09T13:16:44.736Z,14.70
2022-10-09T13:21:47.244Z,15.82
2022-10-09T13:26:49.669Z,13.63
2022-10-09T13:31:52.176Z,10.03
2022-10-09T13:36:54.985Z,10.98
2022-10-09T13:41:58.567Z,12.68
2022-10-09T13:47:01.049Z,17.33
2022-10-09T13:52:03.589Z,12.02
2022-10-09T13:57:06.196Z,9.27
2022-10-09T14:02:10.373Z,8.77
2022-10-09T14:07:12.942Z,9.93
2022-10-09T14:12:15.456Z,11.63
2022-10-09T14:17:17.889Z,8.37
2022-10-09T14:22:20.966Z,8.88
2022-10-09T14:27:23.723Z,7.85
2022-10-09T14:32:26.364Z,9.67
2022-10-09T14:37:41.220Z,11.55
2022-10-09T14:42:44.555Z,10.30
2022-10-09T14:47:47.005Z,10.50
2022-10-09T14:52:49.689Z,10.52
2022-10-09T14:57:52.464Z,12.00
2022-10-09T15:02:56.432Z,13.90
2022-10-09T15:08:01.629Z,13.68
2022-10-09T15:13:04.429Z,12.57
2022-10-09T15:18:06.924Z,13.13
2022-10-09T15:23:09.382Z,11.88
2022-10-09T15:28:11.910Z,10.95
2022-10-09T15:33:14.733Z,13.00
2022-10-09T15:38:19.213Z,13.98
2022-10-09T15:43:23.826Z,16.38
2022-10-09T15:48:26.325Z,13.20
2022-10-09T15:53:30.244Z,18.25
2022-10-09T15:58:32.689Z,22.13
2022-10-09T16:03:37.252Z,17.53
2022-10-09T16:08:40.362Z,28.85
2022-10-09T16:13:45.997Z,21.53
2022-10-09T16:18:49.043Z,22.53
2022-10-09T16:23:57.324Z,18.92
2022-10-09T16:29:01.611Z,22.00
2022-10-09T16:34:05.675Z,19.90
2022-10-09T16:39:08.326Z,44.03
2022-10-09T16:44:15.324Z,26.23
2022-10-09T16:49:21.350Z,20.53
2022-10-09T16:54:40.617Z,21.92
2022-10-09T16:59:44.348Z,25.87
2022-10-09T17:04:46.988Z,20.13
2022-10-09T17:09:49.476Z,19.17
2022-10-09T17:14:52.205Z,21.17
2022-10-09T17:19:54.652Z,24.97
2022-10-09T17:24:57.101Z,28.13
2022-10-09T17:29:59.545Z,31.10
2022-10-09T17:35:02.020Z,44.95
2022-10-09T17:40:06.005Z,44.42
2022-10-09T17:45:09.171Z,42.70
2022-10-09T17:50:12.426Z,26.95
2022-10-09T17:55:17.938Z,23.13
2022-10-09T18:00:22.153Z,26.07
2022-10-09T18:05:24.616Z,25.92
2022-10-09T18:10:27.707Z,23.60
2022-10-09T18:15:30.288Z,30.08
2022-10-09T18:20:35.364Z,30.33
2022-10-09T18:25:44.910Z,24.57
2022-10-09T18:30:47.385Z,30.80
2022-10-09T18:35:49.952Z,34.10
2022-10-09T18:40:52.483Z,36.72
2022-10-09T18:45:55.496Z,42.33
2022-10-09T18:50:58.042Z,43.17
2022-10-09T18:56:00.718Z,33.22
2022-10-09T19:01:07.214Z,43.10
2022-10-09T19:06:10.500Z,36.65
2022-10-09T19:11:14.640Z,39.17
2022-10-09T19:16:18.991Z,23.60
2022-10-09T19:21:21.673Z,41.30
2022-10-09T19:26:24.227Z,45.17
2022-10-09T19:31:27.082Z,38.20
2022-10-09T19:36:33.263Z,41.45
2022-10-09T19:41:35.800Z,38.93
2022-10-09T19:46:39.880Z,37.92
2022-10-09T19:51:42.442Z,44.67
2022-10-09T19:56:44.880Z,38.30
2022-10-09T20:01:47.323Z,44.38
2022-10-09T20:06:49.780Z,42.87
2022-10-09T20:11:52.425Z,43.63
2022-10-09T20:16:54.950Z,44.80
2022-10-09T20:21:57.753Z,49.88
2022-10-09T20:27:00.247Z,40.30
2022-10-09T20:32:02.813Z,35.70
2022-10-09T20:37:05.325Z,76.10
2022-10-09T20:42:07.892Z,42.47
2022-10-09T20:47:10.456Z,42.33
2022-10-09T20:52:12.921Z,33.45
2022-10-09T20:57:15.444Z,40.77
2022-10-09T21:02:17.899Z,40.55
2022-10-09T21:07:20.339Z,44.30
2022-10-09T21:12:22.818Z,50.17
2022-10-09T21:17:25.391Z,51.22
2022-10-09T21:22:27.828Z,45.87
2022-10-09T21:27:30.254Z,48.28
2022-10-09T21:32:32.696Z,47.90
2022-10-09T21:37:37.535Z,44.93
2022-10-09T21:42:40.257Z,42.20
2022-10-09T21:47:42.853Z,48.53
2022-10-09T21:52:45.315Z,52.15
2022-10-09T21:57:47.980Z,55.30
2022-10-09T22:02:50.997Z,46.43
2022-10-09T22:07:54.640Z,53.05
2022-10-09T22:12:57.765Z,23.10
2022-10-09T22:18:00.296Z,36.65
2022-10-09T22:23:02.749Z,32.85
2022-10-09T22:28:05.820Z,26.77
2022-10-09T22:33:08.272Z,31.67
2022-10-09T22:38:10.684Z,29.77
2022-10-09T22:43:13.121Z,28.38
2022-10-09T22:48:15.573Z,32.38
2022-10-09T22:53:18.037Z,25.77
2022-10-09T22:58:20.495Z,29.65
2022-10-09T23:03:22.955Z,30.00
2022-10-09T23:08:25.411Z,19.65
2022-10-09T23:13:27.864Z,20.42
2022-10-09T23:18:30.763Z,19.50
2022-10-09T23:23:34.237Z,30.73
2022-10-09T23:28:36.945Z,30.93
2022-10-09T23:33:41.108Z,25.17
2022-10-09T23:38:43.968Z,22.45
2022-10-09T23:43:47.035Z,27.07
2022-10-09T23:48:50.357Z,28.35
2022-10-09T23:53:53.498Z,26.20
2022-10-09T23:58:56.805Z,29.35
